Aérodrome :
LOGIN :

S'inscrire | Disclaimer

   EN    FR    IT 

 










Légende :    VFR   VFR Marginal   IFR   IFR Intensif   IFR Très Intensif
Visi : 
Plafond : 
>= 8 km
>= 3000ft
5 à 8 km
1000 à 3000 ft
1500m à 5 km
500 à 1000 ft
800 à 1500m
200 à 500 ft
< 800m
< 200 ft
Symboles :   Orages  Brouillard  Fortes neiges  Fortes précipitations  Vent > 20 kt
SIGMETs :   Divers  Orages  Givrage  Turbulence  Onde Orograph.  Cendres Volcan.







- Altitude de l'aérodrome : 327 ft
- Code IATA : BHX
- Voir les cartes d'approche


EGBB - Birmingham

DERNIER METAR :
  • 191620Z 19008KT 160V220 9999 VCSH SCT011 BKN017 19/18 Q1006

METARs EXPIRÉS :
  • 191550Z 18009G19KT 9999 5000E -RA BKN009 19/18 Q1007
  • 191520Z 18008KT 9999 6000NE VCSH BKN009 19/18 Q1007
  • 191450Z 18008KT 160V220 9999 BKN010 19/18 Q1007
  • 191420Z 16009KT 9999 VCSH BKN008 19/18 Q1007
  • 191350Z 16008KT 9999 SCT008 OVC010 18/17 Q1007

TAF AMD TAF EGBB
Valide du 19 à 15h jusqu'au 20 à 12h UTC


191529Z 1915/2012 20010KT 9999 BKN014
TEMPO 1915/1924 7000 SHRA BKN008
PROB30
TEMPO 1915/1922 24015G25KT 4000 +SHRA TSGS SCT006 BKN017CB
PROB30
TEMPO 2000/2012 7000 SHRA BKN010
ATIS : +44 121 780 0910
Pas de NOTAMs connus pour ce terrain.
2 SIGMETs publiés pour la FIR London (EGTT) :
 
Orages noyés dans la masse
EGTT SIGMET 04 VALID 191600/191900 EGRR
EGTT LONDON FIR EMBD TS OBS WI N5402 W00101 - N5101 W00127 - N5020 W00417 - N5132 W00406 - N5200 W00303 - N5354 W00244 - N5402 W00101 TOP FL340 MOV ENE 20KT NC=
Orages noyés dans la masse
EGTT SIGMET 03 VALID 191345/191600 EGRR
EGTT LONDON FIR EMBD TS FCST WI N5109 W00500 - N5148 W00221 - N5105 W00145 - N5100 W00340 - N5030 W00425 - N5024 W00615 - N5109 W00500 TOP FL280 MOV NE 25KT NC=



MET'MAP, la Météo Aéronautique d'un coup d'oeil ! - Copyright ORBIFLY Décembre 2007 - Disclaimer

ORBIFLY MET'MAP TEAM :

Programmation & Développement : Alexandra Zaïnal
Conception & Développement : Baudouin d'Aumeries
Co-Programmation & Développement : Marc-Olivier Méhu
Soutien technique & logistique : Manuel Goepfert

Contact : metmap@orbifly.com




SOURCES & CREDITS :

   NOAA